Augusta, Wisconsin
Current Conditions -  °F | °C
As of 3:36 PM on Saturday 22 Nov 2014 (Local Time) from KEAU Reporting Station
Haze Haze  
Wind Chill: 32°   Ceiling: 400
Heat Index: 36°   Visibility: 2.5mi
Dew Point: 34°   Wind: 5mph
Humidity: 93%   Direction: 180°S
Pressure: 29.71"   Gusts: NA
Location:  44.68°N, 91.12°W
Report Text: KEAU 222136Z 18004KT 2 1/2SM BR OVC004 02/01 A2971 RMK AO2 T00220011
Loading
Personal Weather Stations






























Interactive Weather Map New forecast layout! Learn more

10-Day Weather Forecast

Advertisements
Track Severe Weather on mobile